Airfield :
LOGIN :

Register | Disclaimer

   EN    FR    IT 

 










Legend :    VFR   Marginal VFR   IFR   Intensive IFR   Very Intensive IFR
Visi :
Ceiling :
>= 8 km
>= 3000ft
5 to 8 km
1000 to 3000 ft
1500m to 5 km
500 to 1000 ft
800 to 1500m
200 to 500 ft
< 800m
< 200 ft
Symbols :   Thunderstorms  Fog  Heavy snow  Heavy precipitations  Wind > 20 kt
SIGMETs :     Misc.  Thunderstorms  Icing  Turbulence  Mountain Waves  Volcanic Ashes







- Airport Elevation : 821 ft
- IATA code : LYS
- Download approach charts


LFLL - Lyon St Exupéry / Satolas

CURRENT METAR :
  • 230000Z 19002KT 9999 BKN050 09/06 Q1025 NOSIG

EXPIRED METARs :
  • 222330Z 00000KT 9999 BKN050 09/06 Q1025 NOSIG
  • 222300Z VRB02KT CAVOK 08/06 Q1025 NOSIG
  • 222230Z VRB02KT 9999 SCT036 BKN100 09/05 Q1025 NOSIG
  • 222200Z 18002KT 9999 SCT046 09/05 Q1025 NOSIG
  • 222130Z 00000KT 9999 BKN033 09/05 Q1025 NOSIG

TAF TAF LFLL
Valid from the 23 at 00:00 until the 24 at 06:00 UTC


222300Z 2300/2406 VRB02KT 9999 BKN050
TEMPO 2300/2311 4000 RA BKN025
PROB40
TEMPO 2306/2311 BKN014
BECMG 2310/2312 36010KT
BECMG 2323/2401 VRB02KT
PROB40
TEMPO 2402/2406 4000 BR
No reported NOTAMs for that airfield.
2 SIGMETs reported for the Marseille FIR (LFMM) :
 
Severe turbulence
LFMM SIGMET 18 VALID 222300/230300 LFPW
LFMM MARSEILLE FIR/UIR SEV TURB FCST WI N4200 E00945 - N4115 E00945 - N4115 E00800 - N4015 E00800 - N4345 E00430 - N4400 E00645 SFC/FL060 MOV S 15KT NC=
Severe turbulence
LFMM SIGMET 17 VALID 222300/230300 LFPW
LFMM MARSEILLE FIR/UIR SEV TURB FCST WI N4630 E00515 - N4630 E00700 - N4400 E00700 - N4345 E00815 - N4315 E00700 FL220/320 MOV E 15KT NC=



MET'MAP, your aeronautical weather chart ! - Copyright ORBIFLY December 2007 - Disclaimer

ORBIFLY MET'MAP TEAM :

Programming & Development : Alexandra Zaïnal
Concept & Development : Baudouin d'Aumeries
Co-Development & Prog : Marc-Olivier Méhu
Technical & hardware support : Manuel Goepfert

Contact : metmap@orbifly.com




SOURCES & CREDITS :

   NOAA